• Join FlightAware (Why Join?)
  • Login
  • US Flag 
12:07AM EDT


 

Airport Tracker/Info


-or-


 

Live Flight TrackerFlight Track Log ✈ AWE1940 ✈ 24-Apr-2013 ✈ KRSW - KCLT

Flight Track Log - Related Links

Times and Time Zones

All times are in EDT time to prevent confusion due to time zone crossing. See the AWE1940 flight status page for this flight to view local times or setup timezone preferences in your user account.

Time Position Orientation Groundspeed Altitude Reporting Facility
EDT Latitude Longitude Course Direction KTS MPH feet Rate Location/Type
07:00PM 26.4942 -81.8514 340° North 246 283 3,600  Level Miami Center
07:01PM 26.8731 -81.7333 North  Level FlightAware Approximate
07:01PM 26.5489 -81.8978 323° Northwest 269 310 5,800  Level Miami Center
07:02PM 26.9869 -81.7333 North  Level FlightAware Approximate
07:02PM 26.6233 -81.9197 345° North 274 315 9,000  Level Miami Center
07:03PM 27.0957 -81.7650 340° North  Level FlightAware Approximate
07:03PM 26.7050 -81.9092 North 281 323 11,000  Level Miami Center
07:04PM 27.2047 -81.8015 343° North  Level FlightAware Approximate
07:04PM 26.8000 -81.8783 16° North 320 368 12,900  Level Miami Center
07:05PM 27.3126 -81.8417 340° North  Level FlightAware Approximate
07:05PM 26.8897 -81.8217 29° Northeast 335 386 15,100  Level Miami Center
07:06PM 26.9856 -81.7653 28° Northeast 350 403 17,200 2,100 Climbing Miami Center
07:07PM 27.0961 -81.7700 358° North 369 425 19,300 1,920 Climbing Miami Center
07:08PM 27.2014 -81.8000 346° North 402 463 21,100 2,040 Climbing Miami Center
07:09PM 27.3044 -81.8372 342° North 392 451 23,400 1,740 Climbing Miami Center
07:10PM 27.4064 -81.8486 354° North 397 457 24,600 1,200 Climbing Miami Center
07:11PM 27.5186 -81.7997 21° North 408 470 25,900 1,440 Climbing Miami Center
07:12PM 27.6478 -81.7444 21° North 438 504 27,500 1,260 Climbing Miami Center
07:13PM 27.7661 -81.7003 18° North 443 510 28,500 1,500 Climbing Miami Center
07:14PM 27.8903 -81.6725 11° North 448 516 30,500 1,200 Climbing Miami Center
07:15PM 27.9956 -81.6464 12° North 435 501 31,000 240 Climbing Miami Center
07:16PM 28.1175 -81.6186 11° North 430 495 31,000  Level Miami Center
07:17PM 28.2394 -81.5908 11° North 435 501 31,000  Level Miami Center
07:18PM 28.3592 -81.5628 12° North 435 501 31,000  Level Miami Center
07:19PM 28.5103 -81.5483 North 437 503 31,000  Level Jacksonville Center
07:20PM 28.6272 -81.5728 350° North 431 496 31,000 -60 Level Jacksonville Center
07:21PM 28.7464 -81.5950 351° North 431 496 30,900 -60 Descending Jacksonville Center
07:22PM 28.8636 -81.6219 349° North 426 490 30,900  Level Jacksonville Center
07:23PM 28.9850 -81.6442 351° North 432 497 31,000  Climbing Jacksonville Center
07:24PM 29.1061 -81.6664 351° North 432 497 31,000 300 Level Jacksonville Center
07:25PM 29.2339 -81.6956 349° North 432 497 31,700 960 Climbing Jacksonville Center
07:26PM 29.3531 -81.7203 350° North 432 497 33,000 840 Climbing Jacksonville Center
07:27PM 29.4722 -81.7428 351° North 432 497 33,400 840 Climbing Jacksonville Center
07:28PM 29.5936 -81.7678 350° North 432 497 34,700 780 Climbing Jacksonville Center
07:29PM 29.7128 -81.7903 351° North 432 497 35,000 120 Climbing Jacksonville Center
07:30PM 29.8297 -81.8153 349° North 432 497 35,000  Level Jacksonville Center
07:31PM 29.9489 -81.8378 351° North 432 497 35,000  Level Jacksonville Center
07:32PM 30.0681 -81.8606 351° North 432 497 35,000 -60 Level Jacksonville Center
07:33PM 30.1853 -81.8808 351° North 432 497 34,900  Descending Jacksonville Center
07:34PM 30.3106 -81.8747 North 432 497 35,000  Climbing Jacksonville Center
07:35PM 30.4336 -81.8589 North 432 497 35,000  Level Jacksonville Center
07:36PM 30.5483 -81.8458 North 458 527 35,000  Level Jacksonville Center
07:37PM 30.6714 -81.8372 North 453 521 35,000  Level Jacksonville Center
07:38PM 30.7925 -81.8503 355° North 438 504 35,000  Level Jacksonville Center
07:39PM 30.9117 -81.8636 355° North 438 504 35,000  Level Jacksonville Center
07:40PM 31.0328 -81.8767 355° North 438 504 35,000  Level Jacksonville Center
07:41PM 31.1500 -81.8900 354° North 428 493 35,000 -60 Level Jacksonville Center
07:42PM 31.2711 -81.9033 355° North 428 493 34,900  Descending Jacksonville Center
07:43PM 31.3922 -81.9117 357° North 428 493 35,000 60 Climbing Jacksonville Center
07:44PM 31.5303 -81.9272 355° North 428 493 35,100  Climbing Jacksonville Center
07:45PM 31.6514 -81.9408 355° North 441 507 35,100 -60 Level Jacksonville Center
07:46PM 31.7747 -81.9542 355° North 441 507 35,000 -60 Descending Jacksonville Center
07:47PM 31.8958 -81.9675 355° North 441 507 35,000  Level Jacksonville Center
07:49PM 32.1825 -81.9969 355° North 449 517 35,000  Level Atlanta Center
07:50PM 32.3039 -82.0092 355° North 443 510 35,000  Level Atlanta Center
07:51PM 32.4253 -82.0233 354° North 443 510 35,000  Level Atlanta Center
07:52PM 32.5464 -82.0356 355° North 443 510 35,000 -300 Level Atlanta Center
07:53PM 32.6697 -82.0500 354° North 443 510 34,500 -600 Descending Atlanta Center
07:54PM 32.7931 -82.0619 355° North 443 510 33,900 -1,020 Descending Atlanta Center
07:55PM 32.9144 -82.0767 354° North 443 510 32,500 -1,500 Descending Atlanta Center
07:56PM 33.0419 -82.0886 356° North 448 516 30,900 -1,620 Descending Atlanta Center
07:57PM 33.1694 -82.1031 355° North 448 516 29,300 -1,620 Descending Atlanta Center
07:58PM 33.2950 -82.1178 354° North 448 516 27,700 -1,560 Descending Atlanta Center
07:59PM 33.4119 -82.1300 355° North 441 507 26,200 -1,500 Descending Atlanta Center
08:00PM 33.5333 -82.1422 355° North 435 501 24,700 -1,140 Descending Atlanta Center
08:01PM 33.6483 -82.1547 355° North 423 487 24,000 -360 Descending Atlanta Center
08:02PM 33.7758 -82.1619 357° North 423 487 24,000 -360 Level Atlanta Center
08:03PM 33.8906 -82.1594 North 418 481 23,300 -840 Descending Atlanta Center
08:04PM 34.0053 -82.1569 North 418 481 22,400 -1,020 Descending Atlanta Center
08:05PM 34.1181 -82.1569 360° North 407 468 21,300 -1,260 Descending Atlanta Center
08:06PM 34.2286 -82.1519 North 400 460 19,900 -1,500 Descending Atlanta Center
08:07PM 34.3192 -82.0719 36° Northeast 376 433 18,400 -1,500 Descending Atlanta Center
08:08PM 34.4008 -81.9694 46° Northeast 389 448 16,900 -1,500 Descending Atlanta Center
08:09PM 34.4764 -81.8692 48° Northeast 400 460 15,400 -1,560 Descending Atlanta Center
08:10PM 34.5519 -81.7739 46° Northeast 395 455 13,800 -1,620 Descending Atlanta Center
08:11PM 34.6333 -81.6708 46° Northeast 382 440 12,100 -900 Descending Atlanta Center
08:12PM 34.6967 -81.5933 45° Northeast 368 423 12,000 -60 Descending Atlanta Center
08:13PM 34.7617 -81.5078 47° Northeast 342 394 12,000  Level Atlanta Center
08:14PM 34.8267 -81.4275 45° Northeast 331 381 12,000  Level Atlanta Center
08:15PM 34.8469 -81.3964 52° Northeast 337 388 12,000 -840 Level Atlanta Center
08:15PM 34.9058 -81.3236 45° Northeast 336 387 11,000 -1,320 Descending Atlanta Center
08:16PM 34.9525 -81.2639 46° Northeast 326 375 9,800 -1,560 Descending Atlanta Center
08:17PM 34.9767 -81.2275 51° Northeast 328 377 9,300 -840 Descending Atlanta Center
08:17PM 35.0153 -81.1831 43° Northeast 326 375 9,000 -240 Descending Atlanta Center
08:18PM 35.0758 -81.1000 48° Northeast 326 375 9,000  Level Atlanta Center
08:19PM 35.1064 -81.0683 40° Northeast 318 366 9,000  Level Atlanta Center
08:19PM 35.1689 -81.0661 North 268 308 9,000 -420 Level Atlanta Center
08:20PM 35.2128 -81.0697 356° North 255 293 8,400 -1,080 Descending Atlanta Center
08:21PM 35.2800 -81.0772 355° North 245 282 7,100 -1,440 Descending Atlanta Center
08:21PM 35.3028 -81.0792 356° North 235 270 6,600 -1,380 Descending Atlanta Center
08:22PM 35.3697 -81.0869 355° North 237 273 5,400 -900 Descending Atlanta Center
08:23PM 35.4306 -81.0922 356° North 211 243 4,800 -720 Descending Atlanta Center
08:24PM 35.4847 -81.0878 North 198 228 4,000 -420 Descending Atlanta Center
08:26PM 35.4872 -81.0267 87° East 203 234 4,000  Level Atlanta Center
08:27PM 35.4467 -80.9897 143° Southeast 173 199 4,000  Level Atlanta Center
08:28PM 35.4008 -80.9864 177° South 157 181 4,000 -360 Level Atlanta Center
08:29PM 35.3589 -80.9828 176° South 160 184 3,300 -780 Descending Atlanta Center
08:30PM 35.3128 -80.9769 174° South 153 176 2,500 -780 Descending Atlanta Center
08:31PM 35.2775 -80.9756 178° South 128 147 1,800 -720 Descending Atlanta Center